Time;durP1;ratioP1;P1;durP2;ratioP2;P2;SDS_P1;SDS_P2;PMS_P1;PMS_P2;Temp;Humidity;BMP_temperature;BMP_pressure;BME280_temperature;BME280_humidity;BME280_pressure;Samples;Min_cycle;Max_cycle;Signal;HPM_P1;HPM_P2
2021/08/25 00:01:06;;;;;;;18.63;6.40;;;;;;;12.44;84.69;102521.59;5065146;28;20471;-65
2021/08/25 00:03:31;;;;;;;19.52;6.30;;;;;;;12.40;84.51;102516.19;5065218;28;20079;-67
2021/08/25 00:05:57;;;;;;;19.65;6.70;;;;;;;12.41;84.94;102515.31;5066021;28;20033;-65
2021/08/25 00:08:22;;;;;;;18.95;6.57;;;;;;;12.39;84.86;102515.28;5064256;28;20025;-64
2021/08/25 00:10:48;;;;;;;20.00;6.47;;;;;;;12.41;84.94;102516.22;5067010;28;20471;-64
2021/08/25 00:13:13;;;;;;;20.13;7.10;;;;;;;12.30;85.20;102512.41;5064255;28;20033;-65
2021/08/25 00:15:41;;;;;;;19.00;7.35;;;;;;;12.32;85.37;102510.69;5066144;28;20021;-65
2021/08/25 00:18:08;;;;;;;18.52;6.78;;;;;;;12.30;85.04;102504.47;5064756;28;20041;-65
2021/08/25 00:20:33;;;;;;;20.40;7.20;;;;;;;12.28;85.33;102508.84;5065175;28;20021;-65
2021/08/25 00:22:59;;;;;;;19.33;6.93;;;;;;;12.19;85.27;102505.09;5065837;28;20032;-65
2021/08/25 00:25:24;;;;;;;19.90;6.72;;;;;;;12.18;85.28;102489.16;5063798;28;20024;-65
2021/08/25 00:27:50;;;;;;;19.42;6.70;;;;;;;12.11;86.12;102492.53;5066946;28;20024;-65
2021/08/25 00:30:15;;;;;;;20.17;7.43;;;;;;;12.03;86.18;102487.94;5063419;28;20017;-65
2021/08/25 00:32:41;;;;;;;19.15;6.95;;;;;;;11.92;86.26;102483.19;5065761;28;20182;-65
2021/08/25 00:35:06;;;;;;;20.77;7.63;;;;;;;11.80;87.48;102481.13;5064612;28;20180;-65
2021/08/25 00:37:32;;;;;;;20.02;7.00;;;;;;;11.82;87.93;102484.72;5064400;28;20029;-65
2021/08/25 00:39:58;;;;;;;19.73;7.68;;;;;;;11.81;87.95;102488.22;5065733;28;20109;-65
2021/08/25 00:42:23;;;;;;;20.42;7.63;;;;;;;11.86;87.81;102482.16;5063196;28;20388;-65
2021/08/25 00:44:49;;;;;;;21.40;7.47;;;;;;;11.84;87.82;102486.56;5065840;28;20111;-64
2021/08/25 00:47:15;;;;;;;20.17;7.38;;;;;;;11.72;87.99;102480.91;5063134;28;20086;-65
2021/08/25 00:49:43;;;;;;;20.15;8.10;;;;;;;11.73;88.76;102487.13;5065732;28;20029;-65
2021/08/25 00:52:08;;;;;;;19.48;8.10;;;;;;;11.72;89.02;102478.28;5063505;28;20125;-65
2021/08/25 00:54:34;;;;;;;20.08;7.97;;;;;;;11.76;89.01;102476.63;5064437;28;20071;-65
2021/08/25 00:56:59;;;;;;;20.35;8.13;;;;;;;11.78;89.17;102474.88;5065084;28;20039;-65
2021/08/25 00:59:24;;;;;;;19.65;7.65;;;;;;;11.77;88.30;102481.94;5063220;28;20021;-65
2021/08/25 01:01:58;;;;;;;19.33;7.20;;;;;;;11.75;87.67;102478.38;5066222;28;20024;-65
2021/08/25 01:04:39;;;;;;;20.50;7.53;;;;;;;11.67;87.91;102480.81;5063472;28;20506;-64
2021/08/25 01:07:05;;;;;;;19.63;7.25;;;;;;;11.72;89.15;102483.56;5064228;28;20027;-64
2021/08/25 01:09:31;;;;;;;18.55;7.05;;;;;;;11.67;89.24;102475.50;5063774;28;20426;-65
2021/08/25 01:12:00;;;;;;;19.40;7.45;;;;;;;11.75;88.94;102470.44;5065217;28;20016;-65
2021/08/25 01:14:26;;;;;;;19.65;7.65;;;;;;;11.75;88.46;102465.13;5063003;28;20546;-65
2021/08/25 01:16:52;;;;;;;19.98;7.20;;;;;;;11.69;88.14;102470.25;5065721;28;20028;-65
2021/08/25 01:19:18;;;;;;;18.98;7.57;;;;;;;11.56;88.96;102462.84;5062495;28;20033;-64
2021/08/25 01:21:45;;;;;;;20.13;7.95;;;;;;;11.47;89.54;102467.03;5065362;28;20429;-65
2021/08/25 01:24:13;;;;;;;19.13;7.40;;;;;;;11.44;89.18;102466.97;5062983;28;20029;-65
2021/08/25 01:26:41;;;;;;;21.27;8.20;;;;;;;11.37;89.50;102465.00;5064624;28;20025;-65
2021/08/25 01:29:20;;;;;;;20.52;7.60;;;;;;;11.35;89.26;102458.78;5063681;28;20032;-65
2021/08/25 01:31:45;;;;;;;19.30;7.43;;;;;;;11.33;89.52;102464.03;5065505;28;20029;-67
2021/08/25 01:34:11;;;;;;;19.67;8.05;;;;;;;11.31;89.88;102464.84;5062543;28;20090;-67
2021/08/25 01:36:36;;;;;;;19.73;7.97;;;;;;;11.38;90.19;102453.56;5064056;28;20033;-65
2021/08/25 01:39:02;;;;;;;20.42;8.20;;;;;;;11.31;89.36;102456.91;5064246;28;20137;-65
2021/08/25 01:41:27;;;;;;;19.88;7.95;;;;;;;11.31;89.78;102454.25;5062918;28;20082;-65
2021/08/25 01:43:57;;;;;;;20.10;8.38;;;;;;;11.33;90.18;102448.16;5065228;28;20099;-65
2021/08/25 01:46:43;;;;;;;20.40;8.18;;;;;;;11.31;89.97;102454.25;5062114;28;20017;-65
2021/08/25 01:49:14;;;;;;;20.67;8.38;;;;;;;11.30;90.32;102452.47;5062591;28;20129;-65
2021/08/25 01:51:41;;;;;;;19.98;8.32;;;;;;;11.18;90.77;102457.44;5063926;28;20040;-65
2021/08/25 01:54:08;;;;;;;21.20;8.40;;;;;;;11.24;91.06;102454.94;5062733;28;20394;-65
2021/08/25 01:56:34;;;;;;;20.45;8.40;;;;;;;11.19;91.31;102448.66;5062639;28;20017;-65
2021/08/25 01:59:00;;;;;;;19.58;8.27;;;;;;;11.08;90.78;102448.34;5063761;28;20069;-65
2021/08/25 02:01:26;;;;;;;20.40;8.88;;;;;;;11.07;91.90;102441.28;5061849;28;20021;-65
2021/08/25 02:03:51;;;;;;;21.38;9.07;;;;;;;11.02;92.59;102437.59;5065243;28;20527;-65
2021/08/25 02:06:17;;;;;;;20.17;8.77;;;;;;;10.96;92.72;102435.66;5061616;28;20348;-65
2021/08/25 02:08:42;;;;;;;20.60;9.20;;;;;;;10.96;92.70;102435.66;5064498;28;20032;-65
2021/08/25 02:11:08;;;;;;;21.50;9.57;;;;;;;11.01;93.68;102441.06;5062580;28;20043;-65
2021/08/25 02:13:33;;;;;;;22.08;8.82;;;;;;;10.92;92.69;102441.72;5062681;28;20475;-65
2021/08/25 02:15:59;;;;;;;20.42;8.75;;;;;;;10.95;93.32;102436.50;5064117;28;20048;-64
2021/08/25 02:18:24;;;;;;;21.95;9.52;;;;;;;11.01;93.70;102438.44;5061289;28;20502;-64
2021/08/25 02:20:49;;;;;;;22.60;9.60;;;;;;;10.94;92.65;102427.69;5064595;28;20431;-64
2021/08/25 02:23:15;;;;;;;21.30;9.57;;;;;;;10.90;92.80;102435.50;5061569;28;20040;-64
2021/08/25 02:25:40;;;;;;;20.73;8.57;;;;;;;10.92;92.04;102433.78;5063577;28;20102;-65
2021/08/25 02:28:05;;;;;;;21.30;9.48;;;;;;;10.90;93.08;102432.84;5062785;28;20035;-65
2021/08/25 02:30:32;;;;;;;21.63;9.57;;;;;;;10.88;93.75;102432.81;5062376;28;20037;-65
2021/08/25 02:32:57;;;;;;;20.33;8.98;;;;;;;10.89;92.80;102425.75;5063357;28;20086;-65
2021/08/25 02:35:23;;;;;;;21.85;9.35;;;;;;;10.85;92.74;102426.50;5061212;28;20029;-65
2021/08/25 02:37:49;;;;;;;23.00;10.32;;;;;;;10.84;95.46;102432.69;5064820;28;20378;-65
2021/08/25 02:40:14;;;;;;;22.23;10.13;;;;;;;10.90;94.60;102428.44;5061302;28;20021;-65
2021/08/25 02:42:40;;;;;;;21.50;9.77;;;;;;;10.85;95.09;102421.22;5063389;28;20017;-65
2021/08/25 02:45:07;;;;;;;21.70;9.60;;;;;;;10.73;93.24;102422.69;5062595;28;20056;-65
2021/08/25 02:47:32;;;;;;;21.48;9.70;;;;;;;10.69;93.50;102417.25;5061890;28;20480;-64
2021/08/25 02:49:57;;;;;;;22.52;10.20;;;;;;;10.68;94.11;102423.41;5063854;28;20031;-65
2021/08/25 02:52:23;;;;;;;21.50;9.82;;;;;;;10.67;94.64;102411.91;5060459;28;20510;-65
2021/08/25 02:54:48;;;;;;;20.95;9.50;;;;;;;10.68;94.56;102416.34;5063987;28;20041;-65
2021/08/25 02:57:13;;;;;;;22.77;9.77;;;;;;;10.65;93.83;102413.63;5061362;28;20021;-64
2021/08/25 02:59:39;;;;;;;22.67;10.27;;;;;;;10.62;94.97;102402.97;5062908;28;20560;-66
2021/08/25 03:02:04;;;;;;;23.00;10.82;;;;;;;10.57;95.72;102400.19;5062279;28;20059;-66
2021/08/25 03:04:29;;;;;;;23.30;10.95;;;;;;;10.63;97.01;102396.84;5061416;28;20174;-65
2021/08/25 03:06:55;;;;;;;21.67;10.23;;;;;;;10.66;96.08;102393.34;5063242;28;20081;-66
2021/08/25 03:09:20;;;;;;;21.52;9.70;;;;;;;10.64;95.70;102391.59;5060617;28;20018;-66
2021/08/25 03:11:45;;;;;;;23.30;10.65;;;;;;;10.68;95.94;102387.28;5063982;28;20021;-66
2021/08/25 03:14:11;;;;;;;22.52;11.00;;;;;;;10.68;96.66;102384.63;5061309;28;20031;-67
2021/08/25 03:16:36;;;;;;;22.85;10.52;;;;;;;10.64;95.50;102386.31;5062319;28;20108;-70
2021/08/25 03:19:02;;;;;;;23.15;11.18;;;;;;;10.53;97.16;102392.09;5062607;28;20025;-66
2021/08/25 03:21:27;;;;;;;21.77;10.60;;;;;;;10.51;97.18;102389.41;5060925;28;20476;-66
2021/08/25 03:23:53;;;;;;;21.95;10.68;;;;;;;10.58;97.56;102390.50;5064010;28;20055;-65
2021/08/25 03:26:18;;;;;;;23.42;11.32;;;;;;;10.57;98.20;102396.63;5060330;28;20021;-66
2021/08/25 03:28:44;;;;;;;23.33;11.35;;;;;;;10.61;98.72;102391.47;5063130;28;20108;-66
2021/08/25 03:31:09;;;;;;;24.42;11.40;;;;;;;10.57;99.10;102388.69;5061606;28;20048;-66
2021/08/25 03:33:34;;;;;;;22.90;11.10;;;;;;;10.56;98.30;102390.47;5061749;28;20075;-65
2021/08/25 03:36:00;;;;;;;22.58;10.80;;;;;;;10.52;98.64;102388.56;5062628;28;20020;-66
2021/08/25 03:38:25;;;;;;;23.38;10.63;;;;;;;10.50;98.74;102387.66;5060781;28;20112;-65
2021/08/25 03:40:50;;;;;;;22.98;10.40;;;;;;;10.49;98.11;102390.25;5063855;28;20048;-65
2021/08/25 03:43:16;;;;;;;23.35;10.77;;;;;;;10.51;98.25;102378.84;5060455;28;20507;-65
2021/08/25 03:45:41;;;;;;;22.98;10.63;;;;;;;10.51;98.46;102377.97;5063113;28;20360;-66
2021/08/25 03:48:06;;;;;;;23.20;11.02;;;;;;;10.53;100.00;102371.88;5061950;28;20025;-65
2021/08/25 03:50:32;;;;;;;23.60;11.60;;;;;;;10.52;100.00;102369.19;5061093;28;20045;-65
2021/08/25 03:52:57;;;;;;;23.75;11.52;;;;;;;10.49;99.46;102364.69;5063059;28;20459;-66
2021/08/25 03:55:22;;;;;;;23.50;11.38;;;;;;;10.37;99.78;102359.94;5060024;28;20376;-66
2021/08/25 03:57:48;;;;;;;24.42;11.50;;;;;;;10.42;100.00;102360.06;5064249;28;20451;-65
2021/08/25 04:00:14;;;;;;;24.20;11.20;;;;;;;10.33;98.75;102357.16;5060662;28;20087;-65
2021/08/25 04:02:39;;;;;;;24.40;11.20;;;;;;;10.32;99.10;102371.19;5062175;28;20112;-65
2021/08/25 04:05:05;;;;;;;22.42;11.15;;;;;;;10.33;99.65;102365.97;5061964;28;20025;-66
2021/08/25 04:07:31;;;;;;;23.23;11.07;;;;;;;10.30;100.00;102364.13;5060817;28;20025;-66
2021/08/25 04:09:56;;;;;;;22.40;10.98;;;;;;;10.30;99.92;102363.22;5063066;28;20024;-67
2021/08/25 04:12:21;;;;;;;22.92;10.85;;;;;;;10.20;99.62;102371.72;5060170;28;20040;-67
2021/08/25 04:14:46;;;;;;;23.48;10.52;;;;;;;10.25;100.00;102365.75;5063029;28;20471;-66
2021/08/25 04:17:12;;;;;;;23.88;11.57;;;;;;;10.17;100.00;102364.59;5059083;28;20117;-67
2021/08/25 04:19:37;;;;;;;23.73;11.90;;;;;;;10.15;100.00;102366.31;5065042;28;20082;-66
2021/08/25 04:22:03;;;;;;;23.98;10.75;;;;;;;10.18;100.00;102369.03;5065482;28;20467;-66
2021/08/25 04:24:28;;;;;;;23.98;10.77;;;;;;;10.12;100.00;102361.81;5063886;28;20119;-66
2021/08/25 04:26:53;;;;;;;24.25;11.27;;;;;;;10.14;100.00;102361.88;5067077;28;20025;-67
2021/08/25 04:29:19;;;;;;;24.02;11.73;;;;;;;10.16;100.00;102360.16;5063232;28;20100;-66
2021/08/25 04:31:44;;;;;;;22.58;11.50;;;;;;;10.06;100.00;102366.00;5066576;28;20116;-66
2021/08/25 04:34:10;;;;;;;23.42;11.45;;;;;;;10.12;100.00;102363.59;5064481;28;20355;-66
2021/08/25 04:36:36;;;;;;;24.13;11.18;;;;;;;10.01;100.00;102362.34;5064949;28;20025;-66
2021/08/25 04:39:01;;;;;;;23.15;10.90;;;;;;;10.03;100.00;102368.56;5065568;28;20410;-66
2021/08/25 04:41:26;;;;;;;23.60;11.43;;;;;;;10.03;100.00;102358.00;5063642;28;20035;-66
2021/08/25 04:43:52;;;;;;;23.42;11.82;;;;;;;10.03;100.00;102360.63;5066705;28;20071;-66
2021/08/25 04:46:18;;;;;;;22.95;11.15;;;;;;;9.98;100.00;102360.50;5063270;28;20049;-66
2021/08/25 04:48:44;;;;;;;22.70;11.57;;;;;;;9.95;100.00;102365.69;5065628;28;20071;-66
2021/08/25 04:51:11;;;;;;;22.90;11.00;;;;;;;9.92;100.00;102370.88;5063872;28;20068;-66
2021/08/25 04:53:37;;;;;;;23.33;11.48;;;;;;;9.92;100.00;102370.88;5064360;28;20108;-66
2021/08/25 04:56:03;;;;;;;23.00;11.40;;;;;;;9.91;100.00;102363.81;5064868;28;20073;-66
2021/08/25 04:58:28;;;;;;;21.80;10.75;;;;;;;9.93;100.00;102356.81;5063223;28;20487;-67
2021/08/25 05:00:53;;;;;;;22.42;11.32;;;;;;;9.92;100.00;102355.94;5066312;28;20021;-66
2021/08/25 05:03:18;;;;;;;22.75;11.00;;;;;;;9.95;100.00;102361.28;5062742;28;20490;-66
2021/08/25 05:05:44;;;;;;;24.02;11.05;;;;;;;9.96;100.00;102356.94;5065256;28;20047;-66
2021/08/25 05:08:09;;;;;;;23.17;11.50;;;;;;;10.00;100.00;102352.63;5064033;28;20071;-66
2021/08/25 05:10:34;;;;;;;23.67;11.60;;;;;;;9.96;100.00;102351.66;5063854;28;20025;-66
2021/08/25 05:13:00;;;;;;;25.25;11.60;;;;;;;9.99;100.00;102351.75;5065131;28;20029;-66
2021/08/25 05:15:25;;;;;;;23.88;11.32;;;;;;;10.02;100.00;102351.81;5062823;28;20025;-66
2021/08/25 05:17:50;;;;;;;24.15;11.52;;;;;;;10.03;100.00;102348.34;5065758;28;20044;-66
2021/08/25 05:20:16;;;;;;;27.35;12.30;;;;;;;10.07;100.00;102351.97;5062863;28;20052;-67
2021/08/25 05:22:41;;;;;;;23.92;11.82;;;;;;;10.08;100.00;102351.13;5064544;28;20422;-67
2021/08/25 05:25:07;;;;;;;25.15;11.95;;;;;;;10.08;100.00;102349.38;5064030;28;20043;-66
2021/08/25 05:27:33;;;;;;;24.77;12.40;;;;;;;10.17;100.00;102355.78;5063447;28;20025;-65
2021/08/25 05:29:58;;;;;;;24.70;12.52;;;;;;;10.15;100.00;102358.38;5064604;28;20028;-66
2021/08/25 05:32:23;;;;;;;24.92;13.02;;;;;;;10.26;100.00;102353.41;5062147;28;20349;-66
2021/08/25 05:34:49;;;;;;;24.20;12.25;;;;;;;10.26;100.00;102351.66;5064143;28;20020;-66
2021/08/25 05:37:14;;;;;;;23.55;12.32;;;;;;;10.38;100.00;102350.25;5072098;28;20059;-66
2021/08/25 05:39:39;;;;;;;25.42;12.77;;;;;;;10.40;100.00;102348.56;5068389;28;20037;-67
2021/08/25 05:42:05;;;;;;;28.27;12.98;;;;;;;10.41;100.00;102345.97;5071332;28;20040;-66
2021/08/25 05:44:30;;;;;;;24.65;13.20;;;;;;;10.46;100.00;102348.75;5071981;28;20024;-67
2021/08/25 05:46:57;;;;;;;23.83;13.00;;;;;;;10.51;100.00;102354.16;5071474;28;20529;-65
2021/08/25 05:49:23;;;;;;;24.77;13.07;;;;;;;10.62;100.00;102355.38;5071146;28;20025;-66
2021/08/25 05:51:48;;;;;;;24.80;13.80;;;;;;;10.65;100.00;102350.16;5071335;28;20090;-66
2021/08/25 05:54:14;;;;;;;26.50;15.32;;;;;;;10.73;100.00;102353.94;5072171;28;20036;-67
2021/08/25 05:56:40;;;;;;;26.10;14.57;;;;;;;10.84;100.00;102345.38;5070258;28;20425;-67
2021/08/25 05:59:05;;;;;;;27.90;16.02;;;;;;;10.87;100.00;102348.13;5071803;28;20028;-66
2021/08/25 06:01:31;;;;;;;29.02;16.00;;;;;;;10.96;100.00;102345.69;5072212;28;20028;-66
2021/08/25 06:03:56;;;;;;;26.55;15.63;;;;;;;11.04;100.00;102353.84;5072059;28;20508;-66
2021/08/25 06:06:21;;;;;;;27.65;16.25;;;;;;;11.09;100.00;102353.09;5071453;28;20439;-67
2021/08/25 06:08:47;;;;;;;28.23;16.55;;;;;;;11.18;100.00;102352.44;5071145;28;20124;-65
2021/08/25 06:11:12;;;;;;;30.20;17.58;;;;;;;11.30;100.00;102357.16;5071362;28;20048;-66
2021/08/25 06:13:38;;;;;;;29.17;16.98;;;;;;;11.38;100.00;102354.72;5069754;28;20502;-67
2021/08/25 06:16:05;;;;;;;30.58;19.10;;;;;;;11.41;100.00;102350.38;5070246;28;20430;-68
2021/08/25 06:18:30;;;;;;;28.38;17.55;;;;;;;11.51;100.00;102338.28;5071325;28;20025;-67
2021/08/25 06:20:56;;;;;;;29.00;18.27;;;;;;;11.60;100.00;102351.72;5071328;28;20356;-67
2021/08/25 06:23:21;;;;;;;31.67;18.38;;;;;;;11.62;100.00;102344.72;5071202;28;20016;-65
2021/08/25 06:25:49;;;;;;;29.35;18.05;;;;;;;11.67;100.00;102343.06;5070052;28;20070;-66
2021/08/25 06:28:14;;;;;;;28.75;18.27;;;;;;;11.81;100.00;102350.44;5068669;28;20040;-65
2021/08/25 06:30:39;;;;;;;30.17;18.95;;;;;;;11.82;100.00;102355.81;5071570;28;20383;-66
2021/08/25 06:33:05;;;;;;;31.05;18.70;;;;;;;11.91;100.00;102356.84;5071201;28;20029;-66
2021/08/25 06:35:30;;;;;;;29.58;19.02;;;;;;;11.95;100.00;102354.34;5070893;28;20039;-66
2021/08/25 06:37:56;;;;;;;28.60;18.98;;;;;;;11.99;100.00;102363.25;5070725;28;20021;-65
2021/08/25 06:40:21;;;;;;;29.35;18.23;;;;;;;12.07;100.00;102363.44;5070588;28;20036;-66
2021/08/25 06:42:46;;;;;;;27.73;17.50;;;;;;;12.20;100.00;102365.47;5070566;28;20024;-66
2021/08/25 06:45:12;;;;;;;28.08;16.88;;;;;;;12.23;100.00;102365.53;5070945;28;20043;-66
2021/08/25 06:47:37;;;;;;;30.08;18.00;;;;;;;12.29;100.00;102359.47;5070924;28;20034;-66
2021/08/25 06:50:04;;;;;;;30.33;17.98;;;;;;;12.38;100.00;102365.00;5067253;28;20021;-67
2021/08/25 06:52:30;;;;;;;28.45;17.70;;;;;;;12.40;100.00;102368.56;5068089;28;20033;-66
2021/08/25 06:54:56;;;;;;;29.48;17.90;;;;;;;12.51;100.00;102372.34;5070768;28;20433;-69
2021/08/25 06:57:21;;;;;;;28.38;17.27;;;;;;;12.60;100.00;102371.63;5070884;28;20108;-67
2021/08/25 06:59:46;;;;;;;27.33;17.35;;;;;;;12.66;100.00;102370.88;5070851;28;20025;-68
2021/08/25 07:02:12;;;;;;;27.73;17.48;;;;;;;12.77;99.63;102374.63;5070968;28;20035;-65
2021/08/25 07:04:44;;;;;;;26.70;15.70;;;;;;;12.85;94.38;102373.00;5071031;28;20028;-68
2021/08/25 07:07:10;;;;;;;27.60;16.80;;;;;;;12.93;97.23;102367.88;5069966;28;20039;-68
2021/08/25 07:09:35;;;;;;;26.85;15.43;;;;;;;13.03;96.30;102376.88;5070916;28;20024;-67
2021/08/25 07:12:00;;;;;;;27.27;15.43;;;;;;;13.14;96.51;102367.34;5071042;28;20483;-68
2021/08/25 07:14:26;;;;;;;26.25;14.95;;;;;;;13.22;96.62;102373.69;5070515;28;20039;-68
2021/08/25 07:16:51;;;;;;;27.67;15.43;;;;;;;13.31;94.40;102372.03;5070699;28;20031;-68
2021/08/25 07:19:16;;;;;;;26.63;15.68;;;;;;;13.34;94.24;102373.03;5070665;28;20029;-66
2021/08/25 07:21:42;;;;;;;27.35;15.80;;;;;;;13.43;94.42;102372.31;5070554;28;20379;-66
2021/08/25 07:24:07;;;;;;;26.40;15.27;;;;;;;13.52;93.14;102371.56;5071080;28;20455;-66
2021/08/25 07:26:32;;;;;;;26.80;15.15;;;;;;;13.62;92.30;102377.94;5070473;28;20020;-67
2021/08/25 07:28:58;;;;;;;27.58;14.82;;;;;;;13.69;91.36;102370.06;5070248;28;20025;-67
2021/08/25 07:31:23;;;;;;;25.58;13.55;;;;;;;13.81;87.76;102369.38;5063831;28;20032;-66
2021/08/25 07:33:49;;;;;;;25.50;13.85;;;;;;;13.90;89.17;102369.47;5061211;28;20029;-66
2021/08/25 07:36:15;;;;;;;26.23;13.85;;;;;;;13.99;87.91;102367.84;5061827;28;20067;-68
2021/08/25 07:38:40;;;;;;;25.85;13.65;;;;;;;14.08;88.68;102363.56;5062838;28;20025;-66
2021/08/25 07:41:05;;;;;;;25.70;13.73;;;;;;;14.18;88.38;102364.56;5060252;28;20057;-66
2021/08/25 07:43:31;;;;;;;25.08;12.98;;;;;;;14.30;86.36;102356.75;5063509;28;20032;-66
2021/08/25 07:45:56;;;;;;;24.83;12.48;;;;;;;14.38;84.58;102355.97;5060549;28;20136;-68
2021/08/25 07:48:21;;;;;;;25.95;12.43;;;;;;;14.45;82.76;102355.16;5062786;28;20025;-70
2021/08/25 07:50:49;;;;;;;23.67;12.40;;;;;;;14.59;81.80;102356.22;5061651;28;20446;-67
2021/08/25 07:53:15;;;;;;;24.80;11.98;;;;;;;14.74;82.15;102354.66;5062860;28;20506;-67
2021/08/25 07:55:41;;;;;;;26.00;12.60;;;;;;;14.87;81.95;102358.31;5066515;28;20040;-67
2021/08/25 07:58:06;;;;;;;26.52;12.88;;;;;;;14.91;81.17;102345.06;5064085;28;20450;-68
2021/08/25 08:00:31;;;;;;;24.52;12.43;;;;;;;15.09;79.79;102351.47;5067278;28;20033;-68
2021/08/25 08:02:57;;;;;;;24.65;12.05;;;;;;;15.19;80.25;102345.34;5064301;28;20476;-67
2021/08/25 08:05:22;;;;;;;25.85;13.02;;;;;;;15.41;77.13;102338.41;5064853;28;20048;-67
2021/08/25 08:07:47;;;;;;;25.02;13.35;;;;;;;15.65;78.15;102348.38;5065362;28;20032;-68
2021/08/25 08:10:13;;;;;;;25.35;12.48;;;;;;;15.97;77.28;102339.69;5064821;28;20062;-68
2021/08/25 08:12:38;;;;;;;24.17;11.57;;;;;;;16.43;74.71;102338.16;5066508;28;20059;-67
2021/08/25 08:15:10;;;;;;;23.08;11.65;;;;;;;16.65;71.98;102336.44;5063599;28;20017;-68
2021/08/25 08:17:35;;;;;;;24.45;11.70;;;;;;;16.67;72.07;102342.66;5063575;28;20040;-69
2021/08/25 08:20:00;;;;;;;23.02;11.05;;;;;;;16.98;71.05;102329.38;5066897;28;20353;-67
2021/08/25 08:22:26;;;;;;;22.35;10.13;;;;;;;17.32;67.64;102326.75;5064027;28;20029;-67
2021/08/25 08:24:51;;;;;;;22.75;10.00;;;;;;;17.50;65.87;102333.84;5065655;28;20021;-68
2021/08/25 08:27:16;;;;;;;22.00;9.85;;;;;;;17.54;65.96;102332.97;5065508;28;20046;-67
2021/08/25 08:29:42;;;;;;;22.45;10.35;;;;;;;17.52;67.10;102326.75;5064275;28;20112;-67
2021/08/25 08:32:10;;;;;;;22.52;10.27;;;;;;;17.68;66.98;102336.50;5066435;28;20024;-67
2021/08/25 08:34:36;;;;;;;23.92;10.20;;;;;;;17.84;66.79;102325.78;5063452;28;20090;-67
2021/08/25 08:37:03;;;;;;;23.88;10.60;;;;;;;17.94;66.03;102330.25;5066803;28;20020;-67
2021/08/25 08:39:28;;;;;;;23.75;10.38;;;;;;;18.14;66.11;102331.97;5063204;28;20025;-67
2021/08/25 08:41:53;;;;;;;22.60;9.82;;;;;;;18.41;65.64;102328.28;5065866;28;20025;-67
2021/08/25 08:44:20;;;;;;;23.20;10.40;;;;;;;18.92;62.72;102330.72;5064416;28;20027;-67
2021/08/25 08:46:48;;;;;;;23.25;10.10;;;;;;;19.89;60.53;102332.53;5064225;28;20116;-67
2021/08/25 08:49:14;;;;;;;22.83;9.93;;;;;;;20.74;56.42;102326.13;5065381;28;20029;-67
2021/08/25 08:51:40;;;;;;;22.88;9.95;;;;;;;21.36;52.85;102331.41;5063389;28;20045;-67
2021/08/25 08:54:05;;;;;;;23.25;10.20;;;;;;;21.83;52.55;102336.84;5066073;28;20030;-67
2021/08/25 08:56:32;;;;;;;22.60;9.40;;;;;;;22.38;50.16;102328.56;5062945;28;20450;-67
2021/08/25 08:58:58;;;;;;;25.42;9.23;;;;;;;22.97;49.17;102326.31;5065790;28;20028;-68
2021/08/25 09:01:24;;;;;;;22.20;8.05;;;;;;;23.45;46.50;102329.66;5060797;28;20074;-68
2021/08/25 09:03:49;;;;;;;21.75;8.55;;;;;;;23.96;44.51;102331.88;5065109;28;20372;-67
2021/08/25 09:06:15;;;;;;;21.75;8.05;;;;;;;24.56;43.81;102323.78;5062140;28;20435;-68
2021/08/25 09:08:40;;;;;;;21.20;8.40;;;;;;;25.05;42.71;102337.59;5065618;28;20024;-68
2021/08/25 09:11:06;;;;;;;21.15;8.30;;;;;;;25.44;40.52;102339.00;5062925;28;20051;-69
2021/08/25 09:13:40;;;;;;;21.63;8.68;;;;;;;25.65;40.43;102338.25;5064996;28;20349;-69
2021/08/25 09:16:07;;;;;;;20.52;7.53;;;;;;;25.62;38.82;102324.84;5062753;28;20032;-68
2021/08/25 09:18:33;;;;;;;19.95;6.28;;;;;;;25.79;37.41;102326.03;5065254;28;20056;-69
2021/08/25 09:20:59;;;;;;;19.67;6.55;;;;;;;25.43;37.27;102329.16;5064041;28;20346;-69
2021/08/25 09:23:27;;;;;;;19.38;6.55;;;;;;;24.72;39.79;102318.81;5063776;28;20032;-68
2021/08/25 09:25:58;;;;;;;21.30;6.72;;;;;;;24.08;40.79;102321.66;5065049;28;20436;-69
2021/08/25 09:28:35;;;;;;;21.45;6.30;;;;;;;23.68;43.86;102319.13;5063383;28;20040;-69
2021/08/25 09:31:09;;;;;;;20.33;6.03;;;;;;;23.88;42.05;102308.72;5063233;28;20467;-69
2021/08/25 09:33:35;;;;;;;19.88;6.38;;;;;;;24.32;41.86;102314.63;5064983;28;20325;-68
2021/08/25 09:36:05;;;;;;;24.33;7.18;;;;;;;24.58;38.53;102303.03;5063389;28;20020;-68
2021/08/25 09:38:32;;;;;;;19.63;6.60;;;;;;;24.66;39.22;102302.81;5064072;28;20029;-69
2021/08/25 09:41:03;;;;;;;19.52;6.43;;;;;;;24.71;38.32;102309.84;5063588;28;20020;-68
2021/08/25 09:43:51;;;;;;;20.77;6.82;;;;;;;25.19;39.80;102310.06;5063738;28;20029;-68
2021/08/25 09:46:19;;;;;;;20.75;7.28;;;;;;;25.87;37.54;102305.00;5062067;28;20481;-68
2021/08/25 09:48:46;;;;;;;20.45;7.88;;;;;;;26.85;36.65;102300.28;5065678;28;20024;-68
2021/08/25 09:51:14;;;;;;;20.77;7.60;;;;;;;27.34;36.09;102296.50;5061521;28;20052;-68
2021/08/25 09:53:40;;;;;;;21.33;7.93;;;;;;;27.77;35.30;102292.72;5061589;28;20052;-68
2021/08/25 09:56:26;;;;;;;20.65;7.63;;;;;;;28.11;33.62;102287.59;5064434;28;20035;-68
2021/08/25 09:58:52;;;;;;;19.52;6.78;;;;;;;28.33;32.48;102282.00;5062599;28;20021;-68
2021/08/25 10:01:18;;;;;;;20.90;7.05;;;;;;;28.20;31.28;102284.44;5064460;28;20036;-68
2021/08/25 10:03:44;;;;;;;20.10;6.32;;;;;;;28.41;30.50;102281.63;5061802;28;20024;-69
2021/08/25 10:06:10;;;;;;;19.92;6.55;;;;;;;28.85;30.71;102276.75;5065382;28;20493;-70
2021/08/25 10:08:35;;;;;;;18.45;5.82;;;;;;;29.50;30.11;102275.25;5062153;28;20084;-69
2021/08/25 10:11:08;;;;;;;20.50;6.30;;;;;;;30.11;30.19;102268.31;5063737;28;20400;-69
2021/08/25 10:13:33;;;;;;;19.77;6.47;;;;;;;30.53;27.14;102264.13;5062398;28;20072;-70
2021/08/25 10:15:59;;;;;;;19.95;6.40;;;;;;;30.73;28.41;102262.09;5062264;28;20542;-69
2021/08/25 10:18:24;;;;;;;19.77;6.60;;;;;;;30.92;26.09;102260.03;5063347;28;20048;-68
2021/08/25 10:20:51;;;;;;;19.53;5.87;;;;;;;31.40;26.38;102264.50;5062115;28;20025;-68
2021/08/25 10:23:17;;;;;;;18.98;5.60;;;;;;;32.02;25.76;102253.28;5064379;28;20639;-68
2021/08/25 10:26:09;;;;;;;19.98;6.05;;;;;;;32.38;26.81;102251.88;5061325;28;20104;-68
2021/08/25 10:28:59;;;;;;;18.58;5.10;;;;;;;32.76;25.47;102256.66;5063881;28;20436;-69
2021/08/25 10:32:05;;;;;;;19.00;5.57;;;;;;;33.05;26.28;102259.25;5062273;28;20021;-69
2021/08/25 10:34:34;;;;;;;19.92;5.95;;;;;;;33.30;22.51;102258.44;4999446;28;20493;-69
2021/08/25 10:37:26;;;;;;;19.20;5.53;;;;;;;33.78;24.29;102256.94;5001195;28;20122;-69
2021/08/25 10:40:00;;;;;;;19.60;5.70;;;;;;;33.38;24.03;102257.91;5003356;28;20128;-69
2021/08/25 10:42:43;;;;;;;19.13;5.70;;;;;;;33.29;24.62;102266.78;5000633;28;20637;-69
2021/08/25 10:45:09;;;;;;;20.05;5.95;;;;;;;33.53;22.09;102253.19;4999330;28;20038;-68
2021/08/25 10:48:02;;;;;;;19.83;6.22;;;;;;;33.95;23.85;102252.97;5002059;28;20539;-71
2021/08/25 10:50:51;;;;;;;20.48;6.28;;;;;;;34.16;23.93;102245.03;5002198;28;20070;-69
2021/08/25 10:53:36;;;;;;;19.00;5.70;;;;;;;34.41;23.97;102241.31;5003102;28;20141;-69
2021/08/25 10:56:14;;;;;;;20.20;5.80;;;;;;;34.67;21.63;102233.84;5001111;28;20029;-68
2021/08/25 10:58:44;;;;;;;18.67;5.63;;;;;;;34.66;21.72;102240.34;4999078;28;20050;-67
2021/08/25 11:01:29;;;;;;;19.48;5.80;;;;;;;35.25;23.01;102239.44;5002350;28;20116;-68
2021/08/25 11:03:57;;;;;;;19.70;5.75;;;;;;;34.82;21.25;102225.47;5000503;28;20030;-68
2021/08/25 11:06:34;;;;;;;18.35;5.50;;;;;;;34.34;22.88;102227.22;5001375;28;20034;-67
2021/08/25 11:09:12;;;;;;;18.90;5.60;;;;;;;34.94;22.01;102224.50;5000763;28;20030;-68
2021/08/25 11:11:38;;;;;;;18.92;5.50;;;;;;;35.07;21.64;102219.81;5030634;28;20043;-68